North Wilkesboro, NC

8:35 AM EST on December 22, 2014 (GMT -0500)
Wilkes County | Change Station
CLOSE
Current Station
Airport
Location: North Wilkesboro,
Elevation: 1299 ft
Nearby Weather Stations

Elev 1299 ft 36.22 °N, 81.10 °W | Updated 20 minutes ago

Drizzle
Drizzle
34 °F
Feels Like 30 °F
N
5
Wind Variable Wind from ENE

Today
High -- | Low -- °F
--% Chance of Precip.
Yesterday
High -- | Low -- °F
Precip. -- in
7:32 AM 5:13 PM
New Moon, 0% visible
Pressure 30.19 in
Visibility 2.5 miles
Clouds Overcast 500 ft
Windchill 30 °F
Dew Point 34 °F
Humidity 100%
Rainfall 0.00 in
Snow Depth Not available.
UV 0 out of 12
Pollen .30 out of 12
Air Quality Not available.
Flu Activity Not available.
METAR KUKF 221315Z AUTO 07004KT 2 1/2SM DZ OVC005 01/01 A3019 RMK AO2

More Conditions Fewer Conditions

Pressure 30.19 in
Visibility 2.5 miles
Clouds Overcast 500 ft
Windchill 30 °F
Dew Point 34 °F
Humidity 100%
Rainfall 0.00 in
Snow Depth Not available.
UV 0 out of 12
Pollen .30 out of 12
Air Quality Not available.
Flu Activity Not available.
METAR KUKF 221315Z AUTO 07004KT 2 1/2SM DZ OVC005 01/01 A3019 RMK AO2

More Conditions Fewer Conditions

10-Day Weather Forecast

Almanac

Astronomy

Dec. 22, 2014 Rise Set
Actual Time
Civil Twilight
Nautical Twilight
Astronomical Twilight
Moon
Length of Visible Light
Length of Day
Tomorrow will be .
, % of the Moon is Illuminated

Today's Extremes

State Highs State Lows

Community

WunderPhotos

Upload Photos

1,779,599 photos uploaded!

WunderBlogs® & News

Nearby

Air Quality

  Air Quality AQ Index Pollutant
Not available.

Snow Depth

Station Depth Elevation

Earthquake Activity

City Distance Mag. Time & Date
Minimum magnitude displayed is 2.5.

Coastal Water Temperatures

Place Temperature

Nearby Weather Stations